Terminal Aerodrome Forecast
Issued by NWS

Home | Current Version | Previous Version | Text Only | Print | Product List | Glossary On
Versions: 1 2 3 4 5 6 7 8 9 10 11 12 13
000
FTUS41 KCAR 042324
TAFHUL
TAF
KHUL 042324Z 0500/0524 19013KT P6SM SCT120
     FM050400 23010KT P6SM BKN090
     FM050800 27009KT P6SM BKN090
     FM051100 31010G20KT P6SM SCT250=

USA.gov is the U.S. government's official web portal to all federal, state and local government web resources and services.